Time;durP1;ratioP1;P1;durP2;ratioP2;P2;SDS_P1;SDS_P2;PMS_P1;PMS_P2;Temp;Humidity;BMP_temperature;BMP_pressure;BME280_temperature;BME280_humidity;BME280_pressure;Samples;Min_cycle;Max_cycle;Signal;HPM_P1;HPM_P2
2021/03/23 00:00:46;;;;;;;17.25;9.48;;;;;;;;;;5070171;28;20020;-65
2021/03/23 00:03:20;;;;;;;14.85;8.98;;;;;;;;;;5070391;28;20032;-65
2021/03/23 00:05:45;;;;;;;17.98;11.45;;;;;;;;;;5068257;28;20052;-65
2021/03/23 00:08:20;;;;;;;16.30;10.05;;;;;;;;;;5062721;28;20064;-64
2021/03/23 00:10:45;;;;;;;21.20;12.18;;;;;;;;;;5070098;28;20036;-64
2021/03/23 00:13:11;;;;;;;16.98;10.63;;;;;;;;;;5067041;28;20416;-64
2021/03/23 00:15:36;;;;;;;22.38;11.10;;;;;;;;;;5067228;28;20032;-64
2021/03/23 00:18:01;;;;;;;20.77;11.38;;;;;;;;;;5067755;28;20384;-65
2021/03/23 00:20:26;;;;;;;20.73;12.55;;;;;;;;;;5072653;28;20025;-64
2021/03/23 00:22:51;;;;;;;21.15;12.27;;;;;;;;;;5070253;28;20032;-65
2021/03/23 00:25:17;;;;;;;19.95;12.70;;;;;;;;;;5069078;28;20032;-64
2021/03/23 00:27:42;;;;;;;26.25;13.27;;;;;;;;;;5065570;28;20121;-64
2021/03/23 00:30:09;;;;;;;21.38;11.90;;;;;;;;;;5070216;28;20472;-64
2021/03/23 00:32:34;;;;;;;26.08;12.88;;;;;;;;;;5070018;28;20032;-64
2021/03/23 00:35:00;;;;;;;23.65;13.00;;;;;;;;;;5069761;28;20108;-64
2021/03/23 00:37:25;;;;;;;23.67;12.45;;;;;;;;;;5068021;28;20035;-64
2021/03/23 00:39:50;;;;;;;21.15;12.40;;;;;;;;;;5069024;28;20025;-64
2021/03/23 00:42:16;;;;;;;22.58;12.75;;;;;;;;;;5065846;28;20021;-64
2021/03/23 00:44:41;;;;;;;23.90;12.52;;;;;;;;;;5069642;28;20025;-64
2021/03/23 00:47:06;;;;;;;20.92;12.45;;;;;;;;;;5069074;28;20017;-64
2021/03/23 00:49:31;;;;;;;22.90;13.27;;;;;;;;;;5065313;28;20082;-64
2021/03/23 00:51:56;;;;;;;23.52;12.68;;;;;;;;;;5070406;28;20059;-65
2021/03/23 00:54:22;;;;;;;22.92;13.18;;;;;;;;;;5069564;28;20021;-65
2021/03/23 00:56:47;;;;;;;21.50;12.75;;;;;;;;;;5069206;28;20423;-65
2021/03/23 00:59:13;;;;;;;24.50;14.57;;;;;;;;;;5069384;28;20024;-65
2021/03/23 01:01:38;;;;;;;21.60;13.60;;;;;;;;;;5069206;28;20020;-65
2021/03/23 01:04:03;;;;;;;21.48;13.23;;;;;;;;;;5068582;28;20025;-64
2021/03/23 01:06:28;;;;;;;24.30;13.77;;;;;;;;;;5068586;28;20021;-65
2021/03/23 01:08:54;;;;;;;26.00;14.00;;;;;;;;;;5068612;28;20077;-64
2021/03/23 01:11:19;;;;;;;22.40;13.27;;;;;;;;;;5069999;28;20078;-64
2021/03/23 01:13:44;;;;;;;24.30;15.02;;;;;;;;;;5069144;28;20017;-65
2021/03/23 01:16:09;;;;;;;21.50;12.68;;;;;;;;;;5069695;28;20033;-65
2021/03/23 01:18:35;;;;;;;20.95;13.02;;;;;;;;;;5065661;28;20013;-64
2021/03/23 01:21:00;;;;;;;20.75;13.40;;;;;;;;;;5070669;28;20102;-64
2021/03/23 01:23:26;;;;;;;24.33;13.52;;;;;;;;;;5073274;28;20142;-65
2021/03/23 01:25:51;;;;;;;26.33;15.20;;;;;;;;;;5073299;28;20420;-64
2021/03/23 01:28:16;;;;;;;28.77;16.73;;;;;;;;;;5071022;28;20020;-64
2021/03/23 01:30:41;;;;;;;27.45;15.82;;;;;;;;;;5072880;28;20028;-64
2021/03/23 01:33:07;;;;;;;29.02;15.50;;;;;;;;;;5071859;28;20380;-64
2021/03/23 01:35:32;;;;;;;28.95;16.05;;;;;;;;;;5073256;28;20017;-65
2021/03/23 01:37:57;;;;;;;26.13;16.50;;;;;;;;;;5072257;28;20024;-64
2021/03/23 01:40:24;;;;;;;28.15;16.98;;;;;;;;;;5073012;28;20021;-65
2021/03/23 01:42:52;;;;;;;27.10;16.25;;;;;;;;;;5071925;28;20028;-64
2021/03/23 01:45:32;;;;;;;30.90;17.27;;;;;;;;;;5072608;28;20028;-64
2021/03/23 01:47:59;;;;;;;28.90;16.98;;;;;;;;;;5062915;28;20021;-64
2021/03/23 01:50:25;;;;;;;33.08;17.67;;;;;;;;;;5082112;28;20035;-64
2021/03/23 01:52:57;;;;;;;32.28;16.83;;;;;;;;;;5071242;28;20102;-64
2021/03/23 01:55:22;;;;;;;27.58;16.52;;;;;;;;;;5072023;28;20108;-65
2021/03/23 01:57:48;;;;;;;27.38;16.75;;;;;;;;;;5071453;28;20156;-64
2021/03/23 02:00:14;;;;;;;29.40;16.00;;;;;;;;;;5072318;28;20024;-65
2021/03/23 02:02:39;;;;;;;27.85;15.70;;;;;;;;;;5068048;28;20029;-65
2021/03/23 02:05:05;;;;;;;27.73;16.20;;;;;;;;;;5070191;28;20135;-64
2021/03/23 02:07:31;;;;;;;31.83;17.70;;;;;;;;;;5072500;28;20361;-65
2021/03/23 02:09:56;;;;;;;35.40;17.40;;;;;;;;;;5072551;28;20039;-65
2021/03/23 02:12:26;;;;;;;31.63;18.05;;;;;;;;;;5071125;28;20020;-64
2021/03/23 02:14:52;;;;;;;36.60;18.83;;;;;;;;;;5065615;28;20073;-65
2021/03/23 02:17:17;;;;;;;33.25;18.83;;;;;;;;;;5071550;28;20726;-64
2021/03/23 02:19:43;;;;;;;37.65;19.58;;;;;;;;;;5075534;28;20012;-65
2021/03/23 02:22:12;;;;;;;35.25;17.58;;;;;;;;;;5079990;28;20024;-64
2021/03/23 02:24:37;;;;;;;32.90;17.63;;;;;;;;;;5071658;28;20020;-65
2021/03/23 02:27:03;;;;;;;33.95;18.42;;;;;;;;;;5071373;28;20112;-64
2021/03/23 02:29:28;;;;;;;33.97;18.17;;;;;;;;;;5071866;28;20032;-64
2021/03/23 02:31:54;;;;;;;31.25;17.00;;;;;;;;;;5070809;28;20507;-65
2021/03/23 02:34:21;;;;;;;31.80;15.70;;;;;;;;;;5071901;28;20491;-65
2021/03/23 02:36:47;;;;;;;30.33;15.15;;;;;;;;;;5071736;28;20019;-64
2021/03/23 02:39:17;;;;;;;40.83;18.48;;;;;;;;;;5071299;28;20107;-65
2021/03/23 02:41:42;;;;;;;36.08;20.08;;;;;;;;;;5071610;28;20147;-64
2021/03/23 02:44:08;;;;;;;35.88;20.02;;;;;;;;;;5070895;28;20078;-65
2021/03/23 02:46:33;;;;;;;40.22;20.13;;;;;;;;;;5052597;28;20037;-65
2021/03/23 02:48:59;;;;;;;42.22;20.75;;;;;;;;;;5070224;28;20044;-64
2021/03/23 02:51:24;;;;;;;40.78;19.27;;;;;;;;;;5068091;28;20085;-64
2021/03/23 02:53:49;;;;;;;38.85;19.70;;;;;;;;;;5070549;28;20136;-64
2021/03/23 02:56:15;;;;;;;43.80;21.05;;;;;;;;;;5071067;28;20033;-65
2021/03/23 02:58:41;;;;;;;41.28;22.80;;;;;;;;;;5069764;28;20027;-65
2021/03/23 03:01:07;;;;;;;43.95;21.83;;;;;;;;;;5070636;28;20013;-64
2021/03/23 03:03:32;;;;;;;46.85;21.95;;;;;;;;;;5070749;28;20040;-64
2021/03/23 03:05:57;;;;;;;39.55;21.95;;;;;;;;;;5071373;28;20020;-64
2021/03/23 03:08:23;;;;;;;47.10;23.83;;;;;;;;;;5070849;28;20021;-65
2021/03/23 03:10:49;;;;;;;50.63;23.58;;;;;;;;;;5070674;28;20032;-64
2021/03/23 03:13:15;;;;;;;43.38;22.98;;;;;;;;;;5070722;28;20027;-65
2021/03/23 03:15:41;;;;;;;45.28;24.05;;;;;;;;;;5071150;28;20024;-65
2021/03/23 03:18:06;;;;;;;52.40;25.92;;;;;;;;;;5069926;28;20043;-64
2021/03/23 03:20:31;;;;;;;58.50;27.00;;;;;;;;;;5067213;28;20021;-65
2021/03/23 03:22:57;;;;;;;59.55;25.70;;;;;;;;;;5070575;28;20066;-64
2021/03/23 03:25:22;;;;;;;55.47;26.05;;;;;;;;;;5070407;28;20024;-64
2021/03/23 03:27:48;;;;;;;56.42;27.05;;;;;;;;;;5069747;28;20577;-64
2021/03/23 03:30:20;;;;;;;51.22;25.48;;;;;;;;;;5070474;28;20551;-64
2021/03/23 03:32:45;;;;;;;52.63;26.42;;;;;;;;;;5070114;28;20028;-64
2021/03/23 03:35:10;;;;;;;51.97;27.10;;;;;;;;;;5069516;28;20488;-65
2021/03/23 03:37:36;;;;;;;54.50;26.73;;;;;;;;;;5070724;28;20037;-65
2021/03/23 03:40:03;;;;;;;63.20;27.98;;;;;;;;;;5070542;28;20070;-65
2021/03/23 03:42:28;;;;;;;52.92;26.58;;;;;;;;;;5069449;28;20614;-65
2021/03/23 03:44:54;;;;;;;51.83;26.38;;;;;;;;;;5069598;28;20024;-64
2021/03/23 03:47:19;;;;;;;55.53;26.40;;;;;;;;;;5070290;28;20024;-65
2021/03/23 03:49:44;;;;;;;57.30;26.48;;;;;;;;;;5069843;28;20056;-64
2021/03/23 03:52:09;;;;;;;51.38;26.00;;;;;;;;;;5069774;28;20383;-64
2021/03/23 03:54:34;;;;;;;55.22;27.50;;;;;;;;;;5070257;28;20024;-65
2021/03/23 03:57:00;;;;;;;53.30;26.20;;;;;;;;;;5070246;28;20103;-64
2021/03/23 03:59:25;;;;;;;47.83;26.38;;;;;;;;;;5067204;28;20021;-64
2021/03/23 04:01:50;;;;;;;53.65;26.42;;;;;;;;;;5070329;28;20024;-64
2021/03/23 04:04:17;;;;;;;55.58;26.17;;;;;;;;;;5069889;28;20017;-64
2021/03/23 04:06:42;;;;;;;57.58;26.98;;;;;;;;;;5070405;28;20392;-65
2021/03/23 04:09:07;;;;;;;48.95;26.73;;;;;;;;;;5069583;28;20024;-64
2021/03/23 04:11:33;;;;;;;48.60;25.73;;;;;;;;;;5066413;28;20024;-64
2021/03/23 04:13:58;;;;;;;60.83;27.30;;;;;;;;;;5069678;28;20017;-64
2021/03/23 04:16:23;;;;;;;52.60;25.90;;;;;;;;;;5069469;28;20039;-64
2021/03/23 04:18:48;;;;;;;60.22;28.05;;;;;;;;;;5069157;28;20024;-64
2021/03/23 04:21:14;;;;;;;54.10;28.17;;;;;;;;;;5067307;28;20013;-64
2021/03/23 04:23:40;;;;;;;57.55;27.95;;;;;;;;;;5069358;28;20508;-64
2021/03/23 04:26:06;;;;;;;51.85;27.38;;;;;;;;;;5069816;28;20119;-64
2021/03/23 04:28:32;;;;;;;57.78;27.67;;;;;;;;;;5068203;28;20038;-64
2021/03/23 04:30:57;;;;;;;53.63;26.15;;;;;;;;;;5069429;28;20017;-64
2021/03/23 04:33:24;;;;;;;50.03;25.98;;;;;;;;;;5069935;28;20458;-64
2021/03/23 04:35:51;;;;;;;56.13;27.42;;;;;;;;;;5069446;28;20050;-64
2021/03/23 04:38:23;;;;;;;48.55;25.60;;;;;;;;;;5069691;28;20095;-64
2021/03/23 04:40:49;;;;;;;52.55;25.33;;;;;;;;;;5067941;28;20016;-64
2021/03/23 04:43:19;;;;;;;61.47;27.23;;;;;;;;;;5068053;28;20116;-64
2021/03/23 04:45:44;;;;;;;49.85;26.08;;;;;;;;;;5069705;28;20025;-64
2021/03/23 04:48:10;;;;;;;55.60;25.45;;;;;;;;;;5069118;28;20036;-64
2021/03/23 04:50:35;;;;;;;59.97;24.38;;;;;;;;;;5069969;28;20024;-64
2021/03/23 04:53:00;;;;;;;54.38;24.65;;;;;;;;;;5069192;28;20036;-64
2021/03/23 04:55:25;;;;;;;50.25;25.75;;;;;;;;;;5080711;28;20021;-64
2021/03/23 04:57:50;;;;;;;51.83;23.70;;;;;;;;;;5071462;28;20086;-64
2021/03/23 05:00:16;;;;;;;54.35;27.30;;;;;;;;;;5072063;28;20025;-64
2021/03/23 05:02:41;;;;;;;52.40;23.70;;;;;;;;;;5073607;28;20043;-64
2021/03/23 05:05:07;;;;;;;48.28;23.35;;;;;;;;;;5073575;28;20021;-64
2021/03/23 05:07:33;;;;;;;47.22;23.00;;;;;;;;;;5073091;28;20032;-64
2021/03/23 05:09:58;;;;;;;53.67;25.08;;;;;;;;;;5073424;28;20029;-64
2021/03/23 05:12:23;;;;;;;52.00;25.58;;;;;;;;;;5070947;28;20039;-64
2021/03/23 05:14:48;;;;;;;56.58;27.45;;;;;;;;;;5073100;28;20028;-64
2021/03/23 05:17:14;;;;;;;48.63;24.48;;;;;;;;;;5073196;28;20021;-64
2021/03/23 05:19:39;;;;;;;46.97;25.13;;;;;;;;;;5071324;28;20039;-64
2021/03/23 05:22:05;;;;;;;56.83;26.65;;;;;;;;;;5065075;28;20036;-64
2021/03/23 05:24:30;;;;;;;49.20;25.80;;;;;;;;;;5067934;28;20047;-64
2021/03/23 05:26:55;;;;;;;59.65;29.35;;;;;;;;;;5069577;22;20076;-69
2021/03/23 05:29:20;;;;;;;55.70;27.83;;;;;;;;;;5049577;28;20052;-68
2021/03/23 05:31:46;;;;;;;78.78;31.20;;;;;;;;;;5049973;28;20029;-69
2021/03/23 05:34:12;;;;;;;56.92;28.27;;;;;;;;;;5049558;28;20017;-68
2021/03/23 05:36:38;;;;;;;58.97;29.30;;;;;;;;;;5050724;28;20089;-68
2021/03/23 05:39:03;;;;;;;63.70;29.20;;;;;;;;;;5050209;28;20029;-68
2021/03/23 05:41:31;;;;;;;59.15;27.77;;;;;;;;;;5050441;28;20032;-68
2021/03/23 05:44:26;;;;;;;57.08;27.92;;;;;;;;;;5050480;28;20029;-68
2021/03/23 05:46:51;;;;;;;68.07;28.17;;;;;;;;;;4995661;28;20033;-70
2021/03/23 05:49:19;;;;;;;61.00;30.80;;;;;;;;;;5050168;28;20013;-68
2021/03/23 05:51:48;;;;;;;65.47;28.90;;;;;;;;;;5050204;28;20080;-68
2021/03/23 05:54:21;;;;;;;75.28;30.15;;;;;;;;;;5050167;28;20017;-66
2021/03/23 05:56:49;;;;;;;70.20;28.17;;;;;;;;;;5050266;28;20481;-66
2021/03/23 05:59:16;;;;;;;68.53;29.92;;;;;;;;;;5049468;28;20028;-68
2021/03/23 06:01:46;;;;;;;61.53;31.40;;;;;;;;;;5044662;28;20044;-69
2021/03/23 06:04:20;;;;;;;62.58;29.25;;;;;;;;;;5047095;28;20166;-66
2021/03/23 06:06:50;;;;;;;65.30;29.42;;;;;;;;;;5049165;28;20108;-68
2021/03/23 06:09:16;;;;;;;61.75;28.67;;;;;;;;;;5049482;28;20021;-66
2021/03/23 06:11:42;;;;;;;54.10;27.10;;;;;;;;;;5048332;28;20044;-66
2021/03/23 06:14:16;;;;;;;56.75;27.83;;;;;;;;;;5050113;28;20025;-67
2021/03/23 06:16:44;;;;;;;68.88;29.73;;;;;;;;;;5048130;28;20536;-68
2021/03/23 06:19:09;;;;;;;66.43;25.70;;;;;;;;;;5048222;28;20460;-68
2021/03/23 06:21:46;;;;;;;66.27;30.33;;;;;;;;;;5050192;28;20063;-69
2021/03/23 06:24:18;;;;;;;71.47;30.75;;;;;;;;;;5052914;28;20255;-66
2021/03/23 06:27:01;;;;;;;60.03;28.40;;;;;;;;;;5060812;28;20029;-67
2021/03/23 06:29:34;;;;;;;58.08;27.27;;;;;;;;;;5044198;28;20052;-67
2021/03/23 06:32:05;;;;;;;65.82;27.73;;;;;;;;;;5043952;28;20025;-66
2021/03/23 06:34:32;;;;;;;59.88;27.08;;;;;;;;;;5042603;28;20021;-66
2021/03/23 06:36:57;;;;;;;62.40;27.92;;;;;;;;;;5044563;28;20025;-67
2021/03/23 06:39:22;;;;;;;53.53;28.30;;;;;;;;;;5047514;28;20031;-66
2021/03/23 06:41:51;;;;;;;64.65;26.65;;;;;;;;;;5049647;28;20028;-66
2021/03/23 06:44:16;;;;;;;51.55;22.25;;;;;;;;;;5048648;28;20720;-67
2021/03/23 06:46:45;;;;;;;52.75;23.38;;;;;;;;;;5048654;28;20121;-67
2021/03/23 06:49:14;;;;;;;67.72;27.77;;;;;;;;;;5047613;28;20032;-67
2021/03/23 06:51:56;;;;;;;68.65;29.42;;;;;;;;;;5043778;28;20040;-66
2021/03/23 06:54:22;;;;;;;66.40;28.23;;;;;;;;;;5048662;28;20047;-68
2021/03/23 06:57:15;;;;;;;58.28;28.33;;;;;;;;;;5048077;28;20096;-68
2021/03/23 06:59:49;;;;;;;57.35;24.10;;;;;;;;;;5047015;28;20020;-66
2021/03/23 07:02:27;;;;;;;60.85;23.00;;;;;;;;;;5048763;28;20070;-66
2021/03/23 07:04:52;;;;;;;60.83;28.58;;;;;;;;;;5049906;28;20370;-66
2021/03/23 07:07:19;;;;;;;62.03;27.75;;;;;;;;;;5049855;28;20032;-67
2021/03/23 07:09:47;;;;;;;60.92;25.50;;;;;;;;;;5047274;28;20028;-68
2021/03/23 07:12:12;;;;;;;56.28;25.83;;;;;;;;;;5048205;28;20025;-66
2021/03/23 07:14:42;;;;;;;60.92;22.88;;;;;;;;;;5050723;28;20039;-66
2021/03/23 07:17:14;;;;;;;60.67;27.17;;;;;;;;;;5049910;28;20040;-66
2021/03/23 07:19:43;;;;;;;53.45;24.60;;;;;;;;;;5059082;28;20637;-66
2021/03/23 07:22:12;;;;;;;61.28;28.13;;;;;;;;;;5049673;28;20487;-66
2021/03/23 07:24:47;;;;;;;60.83;23.13;;;;;;;;;;5044051;28;20099;-67
2021/03/23 07:27:16;;;;;;;60.25;25.85;;;;;;;;;;5041859;28;20032;-67
2021/03/23 07:29:41;;;;;;;64.80;27.48;;;;;;;;;;5048519;28;20025;-66
2021/03/23 07:32:07;;;;;;;52.90;24.48;;;;;;;;;;5049240;28;20039;-66
2021/03/23 07:34:51;;;;;;;63.63;28.33;;;;;;;;;;5050032;28;20029;-67
2021/03/23 07:37:17;;;;;;;58.65;28.63;;;;;;;;;;5048422;28;20358;-68
2021/03/23 07:39:55;;;;;;;54.95;24.70;;;;;;;;;;5050364;28;20052;-66
2021/03/23 07:42:40;;;;;;;59.80;25.60;;;;;;;;;;5046231;28;20029;-66
2021/03/23 07:45:21;;;;;;;66.05;28.70;;;;;;;;;;5048061;28;20504;-66
2021/03/23 07:47:49;;;;;;;51.47;25.25;;;;;;;;;;5047340;28;20104;-67
2021/03/23 07:50:28;;;;;;;59.97;28.00;;;;;;;;;;5049859;28;20161;-66
2021/03/23 07:53:05;;;;;;;58.55;26.17;;;;;;;;;;5043449;28;20033;-67
2021/03/23 07:55:32;;;;;;;57.47;27.27;;;;;;;;;;5049697;28;20021;-67
2021/03/23 07:58:16;;;;;;;55.97;21.63;;;;;;;;;;5049174;28;20112;-67
2021/03/23 08:00:42;;;;;;;32.22;13.88;;;;;;;;;;5049906;28;20021;-67
2021/03/23 08:03:09;;;;;;;58.95;24.65;;;;;;;;;;5050718;28;20453;-67
2021/03/23 08:05:38;;;;;;;56.78;25.08;;;;;;;;;;5049942;28;20064;-67
2021/03/23 08:08:21;;;;;;;56.92;24.52;;;;;;;;;;5049759;28;20105;-68
2021/03/23 08:10:53;;;;;;;49.75;24.42;;;;;;;;;;5050326;28;20025;-68
2021/03/23 08:13:34;;;;;;;56.92;25.60;;;;;;;;;;5042209;28;20017;-67
2021/03/23 08:16:14;;;;;;;51.83;24.00;;;;;;;;;;5035941;28;20017;-68
2021/03/23 08:18:39;;;;;;;;;;;;;;;;;;5048455;28;20103;-68
2021/03/23 08:21:11;;;;;;;57.03;23.40;;;;;;;;;;5050620;28;19995;-69
2021/03/23 08:23:36;;;;;;;54.17;24.05;;;;;;;;;;5049124;28;20036;-68
2021/03/23 08:26:20;;;;;;;54.47;24.95;;;;;;;;;;5049742;28;20029;-67
2021/03/23 08:28:49;;;;;;;55.22;23.90;;;;;;;;;;5046272;28;20031;-70
2021/03/23 08:31:33;;;;;;;43.88;22.45;;;;;;;;;;5054173;28;20665;-66
2021/03/23 08:33:59;;;;;;;53.95;23.60;;;;;;;;;;5054304;28;20115;-68
2021/03/23 08:36:39;;;;;;;51.50;23.60;;;;;;;;;;5053763;28;20096;-67
2021/03/23 08:39:04;;;;;;;;;;;;;;;;;;5054266;28;20263;-67
2021/03/23 08:41:39;;;;;;;54.17;20.10;;;;;;;;;;5053616;28;19916;-69
2021/03/23 08:44:04;;;;;;;43.33;17.05;;;;;;;;;;5050283;28;20485;-68
2021/03/23 08:46:33;;;;;;;46.60;21.88;;;;;;;;;;5051885;28;20044;-69
2021/03/23 08:49:04;;;;;;;52.85;23.30;;;;;;;;;;5051313;28;20059;-68
2021/03/23 08:51:30;;;;;;;45.42;21.90;;;;;;;;;;5053890;28;20027;-68
2021/03/23 08:53:57;;;;;;;51.15;21.63;;;;;;;;;;5052636;28;20017;-65
2021/03/23 08:56:40;;;;;;;53.03;23.80;;;;;;;;;;5052685;28;20071;-67
2021/03/23 08:59:26;;;;;;;44.17;17.98;;;;;;;;;;5056883;28;20012;-65
2021/03/23 09:01:51;;;;;;;56.63;20.42;;;;;;;;;;5054361;28;20036;-67
2021/03/23 09:04:24;;;;;;;50.28;20.80;;;;;;;;;;5053109;28;20416;-66
2021/03/23 09:06:54;;;;;;;44.30;20.88;;;;;;;;;;5051904;28;20052;-66
2021/03/23 09:09:28;;;;;;;52.97;22.88;;;;;;;;;;5047902;28;20060;-66
2021/03/23 09:12:20;;;;;;;50.50;20.88;;;;;;;;;;5049105;28;20056;-67
2021/03/23 09:15:04;;;;;;;36.60;12.80;;;;;;;;;;5034127;28;20033;-65
2021/03/23 09:18:01;;;;;;;44.70;18.58;;;;;;;;;;5052932;28;20158;-66
2021/03/23 09:20:36;;;;;;;53.97;21.67;;;;;;;;;;5036765;28;20166;-65
2021/03/23 09:23:27;;;;;;;57.65;22.00;;;;;;;;;;5051941;28;20498;-66
2021/03/23 09:25:54;;;;;;;;;;;;;;;;;;5053232;28;20431;-66
2021/03/23 09:28:26;;;;;;;44.60;17.92;;;;;;;;;;5051969;28;19935;-66
2021/03/23 09:30:52;;;;;;;57.03;22.20;;;;;;;;;;5053445;28;20489;-68
2021/03/23 09:33:27;;;;;;;28.40;12.00;;;;;;;;;;5052948;28;20078;-66
2021/03/23 09:36:08;;;;;;;45.10;19.08;;;;;;;;;;5052671;28;20063;-66
2021/03/23 09:38:39;;;;;;;53.53;22.65;;;;;;;;;;5050673;28;20021;-66
2021/03/23 09:41:06;;;;;;;34.47;13.45;;;;;;;;;;5047949;28;20021;-66
2021/03/23 09:43:35;;;;;;;34.75;16.90;;;;;;;;;;5051910;28;20452;-68
2021/03/23 09:46:12;;;;;;;38.63;17.45;;;;;;;;;;5051777;28;20066;-69
2021/03/23 09:48:37;;;;;;;43.83;18.80;;;;;;;;;;5050735;28;20430;-66
2021/03/23 09:51:04;;;;;;;50.47;20.80;;;;;;;;;;5051213;28;20028;-66
2021/03/23 09:53:36;;;;;;;47.00;21.13;;;;;;;;;;5051812;28;20291;-66
2021/03/23 09:56:02;;;;;;;50.15;20.05;;;;;;;;;;5046266;28;20112;-66
2021/03/23 09:58:28;;;;;;;45.00;20.05;;;;;;;;;;5052041;28;20091;-66
2021/03/23 10:01:07;;;;;;;40.67;18.75;;;;;;;;;;5051945;28;20112;-67
2021/03/23 10:03:35;;;;;;;38.65;18.33;;;;;;;;;;5051474;28;20466;-66
2021/03/23 10:06:02;;;;;;;40.13;18.52;;;;;;;;;;5051191;28;20106;-67
2021/03/23 10:08:32;;;;;;;38.28;18.42;;;;;;;;;;5051217;28;20501;-66
2021/03/23 10:11:04;;;;;;;42.15;14.60;;;;;;;;;;5052311;28;20132;-66
2021/03/23 10:13:30;;;;;;;26.02;11.57;;;;;;;;;;5052474;28;20028;-65
2021/03/23 10:15:56;;;;;;;46.53;19.63;;;;;;;;;;5051697;28;20017;-68
2021/03/23 10:18:21;;;;;;;37.60;18.30;;;;;;;;;;5051857;28;20009;-68
2021/03/23 10:20:54;;;;;;;41.13;18.58;;;;;;;;;;5051868;28;20127;-68
2021/03/23 10:23:20;;;;;;;41.80;17.42;;;;;;;;;;5051907;28;20025;-68
2021/03/23 10:25:45;;;;;;;34.20;15.25;;;;;;;;;;5051526;28;20025;-68
2021/03/23 10:28:22;;;;;;;38.38;18.15;;;;;;;;;;5051659;28;20035;-66
2021/03/23 10:30:55;;;;;;;46.55;17.75;;;;;;;;;;5051712;28;20025;-66
2021/03/23 10:33:25;;;;;;;41.28;19.17;;;;;;;;;;5051078;28;20033;-69
2021/03/23 10:35:52;;;;;;;41.30;19.40;;;;;;;;;;5049837;28;20024;-67
2021/03/23 10:38:19;;;;;;;44.92;22.60;;;;;;;;;;5051352;28;20078;-67
2021/03/23 10:40:45;;;;;;;48.78;22.75;;;;;;;;;;5051503;28;20017;-66
2021/03/23 10:43:15;;;;;;;43.58;20.13;;;;;;;;;;5051327;28;20021;-67
2021/03/23 10:45:44;;;;;;;43.08;21.50;;;;;;;;;;5051683;28;20025;-66
2021/03/23 10:48:17;;;;;;;54.15;22.17;;;;;;;;;;5050648;28;20116;-66
2021/03/23 10:50:44;;;;;;;32.45;16.27;;;;;;;;;;5053909;28;20083;-66
2021/03/23 10:53:12;;;;;;;44.90;18.35;;;;;;;;;;5049957;28;20020;-66
2021/03/23 10:55:40;;;;;;;35.28;14.20;;;;;;;;;;5050863;28;20062;-66
2021/03/23 10:58:12;;;;;;;48.58;21.60;;;;;;;;;;5049962;28;20017;-66
2021/03/23 11:00:39;;;;;;;51.40;24.15;;;;;;;;;;5046861;28;20541;-67
2021/03/23 11:03:33;;;;;;;40.17;21.27;;;;;;;;;;5046994;28;20025;-67
2021/03/23 11:06:00;;;;;;;43.13;21.05;;;;;;;;;;5037942;28;20278;-67
2021/03/23 11:08:25;;;;;;;33.95;19.17;;;;;;;;;;5050787;28;20095;-67
2021/03/23 11:10:50;;;;;;;47.50;18.23;;;;;;;;;;5051138;28;20060;-66
2021/03/23 11:13:16;;;;;;;38.72;20.63;;;;;;;;;;5051533;28;20124;-67
2021/03/23 11:15:44;;;;;;;38.15;18.33;;;;;;;;;;5050845;28;20017;-67
2021/03/23 11:18:21;;;;;;;30.25;14.63;;;;;;;;;;5050332;28;20020;-67
2021/03/23 11:20:47;;;;;;;41.35;19.95;;;;;;;;;;5050791;28;20428;-67
2021/03/23 11:23:20;;;;;;;35.20;17.85;;;;;;;;;;5050510;28;20029;-67
2021/03/23 11:25:46;;;;;;;36.65;18.27;;;;;;;;;;5065327;22;20040;-83
2021/03/23 11:28:20;;;;;;;49.13;19.85;;;;;;;;;;5105835;28;20028;-85
2021/03/23 11:30:46;;;;;;;48.20;21.45;;;;;;;;;;5083568;28;20538;-84
2021/03/23 11:33:12;;;;;;;43.65;21.05;;;;;;;;;;5083290;28;20032;-83
2021/03/23 11:35:38;;;;;;;44.53;20.52;;;;;;;;;;5087980;28;20488;-82
2021/03/23 11:38:03;;;;;;;46.15;19.63;;;;;;;;;;5086001;28;20019;-81
2021/03/23 11:40:29;;;;;;;35.42;19.17;;;;;;;;;;5089704;28;20306;-86
2021/03/23 11:42:54;;;;;;;41.65;19.38;;;;;;;;;;5078396;28;20082;-84
2021/03/23 11:45:31;;;;;;;41.75;20.27;;;;;;;;;;5069686;28;20023;-83
2021/03/23 11:47:59;;;;;;;42.40;18.75;;;;;;;;;;5079369;28;20496;-86
2021/03/23 11:50:26;;;;;;;43.85;16.60;;;;;;;;;;5071034;28;20458;-83
2021/03/23 11:52:52;;;;;;;48.40;20.48;;;;;;;;;;5107191;28;20035;-81
2021/03/23 11:55:35;;;;;;;43.33;20.92;;;;;;;;;;5097452;28;20052;-82
2021/03/23 11:58:02;;;;;;;43.05;20.73;;;;;;;;;;5104861;28;20016;-82
2021/03/23 12:00:29;;;;;;;51.90;20.95;;;;;;;;;;5110690;28;20018;-85
2021/03/23 12:02:54;;;;;;;46.67;21.23;;;;;;;;;;5084263;28;20031;-84
2021/03/23 12:05:20;;;;;;;47.35;20.38;;;;;;;;;;5077535;28;20015;-84
2021/03/23 12:07:48;;;;;;;40.28;20.25;;;;;;;;;;5079352;28;20033;-84
2021/03/23 12:10:27;;;;;;;53.25;21.30;;;;;;;;;;5085205;28;20094;-83
2021/03/23 12:12:57;;;;;;;42.17;21.23;;;;;;;;;;5079502;28;20025;-82
2021/03/23 12:15:24;;;;;;;43.50;19.83;;;;;;;;;;5075912;28;20045;-83
2021/03/23 12:17:52;;;;;;;44.22;20.08;;;;;;;;;;5078906;28;20043;-83
2021/03/23 12:20:20;;;;;;;40.50;18.85;;;;;;;;;;5085609;28;20020;-82
2021/03/23 12:22:47;;;;;;;41.53;20.48;;;;;;;;;;5074631;28;20024;-82
2021/03/23 12:25:13;;;;;;;33.92;19.25;;;;;;;;;;5087819;28;20166;-83
2021/03/23 12:27:40;;;;;;;34.65;19.48;;;;;;;;;;5088828;28;20046;-84
2021/03/23 12:30:05;;;;;;;40.03;16.08;;;;;;;;;;5074550;28;20025;-85
2021/03/23 12:32:33;;;;;;;37.53;20.95;;;;;;;;;;5090575;28;20023;-83
2021/03/23 12:34:58;;;;;;;48.70;20.38;;;;;;;;;;5089120;28;20052;-83
2021/03/23 12:37:23;;;;;;;36.75;21.30;;;;;;;;;;5070098;28;20028;-86
2021/03/23 12:39:51;;;;;;;44.70;21.30;;;;;;;;;;5088592;28;20032;-84
2021/03/23 12:42:17;;;;;;;42.33;19.50;;;;;;;;;;5074330;28;20026;-83
2021/03/23 12:44:42;;;;;;;47.75;22.63;;;;;;;;;;5080172;28;20119;-84
2021/03/23 12:47:08;;;;;;;45.72;22.30;;;;;;;;;;5088203;28;20016;-85
2021/03/23 12:49:34;;;;;;;38.85;19.95;;;;;;;;;;5072397;28;20024;-84
2021/03/23 12:52:00;;;;;;;54.42;23.83;;;;;;;;;;5070890;28;20025;-83
2021/03/23 12:54:44;;;;;;;41.47;23.17;;;;;;;;;;5078753;28;20043;-85
2021/03/23 12:57:21;;;;;;;46.92;22.35;;;;;;;;;;5086554;28;20119;-84
2021/03/23 12:59:47;;;;;;;49.22;21.77;;;;;;;;;;5075410;28;20028;-84
2021/03/23 13:02:13;;;;;;;36.25;17.75;;;;;;;;;;5077336;28;20017;-85
2021/03/23 13:04:39;;;;;;;42.92;20.30;;;;;;;;;;5086103;28;20039;-84
2021/03/23 13:07:06;;;;;;;46.90;22.77;;;;;;;;;;5088394;28;20028;-83
2021/03/23 13:09:33;;;;;;;46.10;20.38;;;;;;;;;;5071785;28;20032;-84
2021/03/23 13:12:01;;;;;;;36.50;21.90;;;;;;;;;;5072498;28;20016;-84
2021/03/23 13:14:28;;;;;;;43.42;21.70;;;;;;;;;;5075392;28;20019;-84
2021/03/23 13:16:53;;;;;;;41.75;20.98;;;;;;;;;;5086199;28;20070;-84
2021/03/23 13:19:19;;;;;;;42.65;20.88;;;;;;;;;;5071897;28;20021;-83
2021/03/23 13:21:46;;;;;;;49.20;20.95;;;;;;;;;;5074598;28;20031;-84
2021/03/23 13:24:32;;;;;;;42.67;22.60;;;;;;;;;;5079453;28;20383;-84
2021/03/23 13:26:58;;;;;;;49.92;20.40;;;;;;;;;;5101946;22;20034;-66
2021/03/23 13:29:23;;;;;;;44.08;21.35;;;;;;;;;;5026025;28;20033;-64
2021/03/23 13:31:49;;;;;;;41.60;20.05;;;;;;;;;;5051121;28;20096;-64
2021/03/23 13:34:16;;;;;;;49.65;21.63;;;;;;;;;;5053092;28;20016;-64
2021/03/23 13:36:41;;;;;;;42.20;21.30;;;;;;;;;;5051846;28;20043;-64
2021/03/23 13:41:57;;;;;;;37.80;18.95;;;;;;;;;;5074820;22;20127;-68
2021/03/23 13:44:28;;;;;;;45.15;20.17;;;;;;;;;;5052902;28;20479;-68
2021/03/23 13:46:53;;;;;;;39.30;19.83;;;;;;;;;;5051517;28;20071;-68
2021/03/23 13:49:19;;;;;;;32.40;18.48;;;;;;;;;;5052407;28;20373;-68
2021/03/23 13:51:46;;;;;;;36.38;19.00;;;;;;;;;;5051712;28;20428;-69
2021/03/23 13:54:12;;;;;;;38.60;18.52;;;;;;;;;;5052579;28;20063;-68
2021/03/23 13:56:37;;;;;;;38.65;18.35;;;;;;;;;;5051461;28;20017;-68
2021/03/23 13:59:02;;;;;;;37.78;18.98;;;;;;;;;;5067153;28;20036;-68
2021/03/23 14:01:27;;;;;;;37.90;19.20;;;;;;;;;;5051947;28;20151;-68
2021/03/23 14:03:53;;;;;;;43.85;21.40;;;;;;;;;;5051817;28;20033;-68
2021/03/23 14:06:24;;;;;;;43.20;20.15;;;;;;;;;;5051214;28;20013;-68
2021/03/23 14:08:49;;;;;;;43.63;21.42;;;;;;;;;;5050805;28;20032;-68
2021/03/23 14:11:16;;;;;;;43.03;22.92;;;;;;;;;;5051987;28;20033;-68
2021/03/23 14:13:41;;;;;;;44.53;20.00;;;;;;;;;;5032894;28;20040;-68
2021/03/23 14:16:07;;;;;;;38.38;19.02;;;;;;;;;;5050617;28;20477;-70
2021/03/23 14:18:32;;;;;;;39.55;20.27;;;;;;;;;;5050039;28;20021;-68
2021/03/23 14:20:57;;;;;;;37.92;19.70;;;;;;;;;;5032787;28;20024;-68
2021/03/23 14:23:28;;;;;;;31.27;18.00;;;;;;;;;;5051885;28;20036;-68
2021/03/23 14:25:54;;;;;;;43.28;21.00;;;;;;;;;;5050451;28;20017;-68
2021/03/23 14:28:21;;;;;;;40.17;19.13;;;;;;;;;;5044377;28;20448;-68